Terminal Aerodrome Forecast
Issued by NWS

Home | Current Version | Previous Version | Text Only | Print | Product List | Glossary On
Versions: 1 2 3 4 5 6 7 8 9 10 11 12 13 14 15 16 17 18
010
FTUS42 KFFC 080803 AAA
TAFRYY
TAF AMD
KRYY 080803Z 0808/0906 31006KT P6SM FEW015 BKN150
     FM081000 32007KT P6SM SCT025 BKN120
     FM081400 33010KT P6SM SCT035 BKN080
     FM081600 33012G22KT P6SM SCT040 BKN100
     FM082300 34009KT P6SM SCT150 BKN250
      AMD NOT SKED TIL 081200=

USA.gov is the U.S. government's official web portal to all federal, state and local government web resources and services.